Time;durP1;ratioP1;P1;durP2;ratioP2;P2;SDS_P1;SDS_P2;PMS_P1;PMS_P2;Temp;Humidity;BMP_temperature;BMP_pressure;BME280_temperature;BME280_humidity;BME280_pressure;Samples;Min_cycle;Max_cycle;Signal;HPM_P1;HPM_P2
2021/10/10 00:02:11;;;;;;;52.50;31.23;;;;;;;2.75;71.70;102470.80;1707687;81;25844;-81
2021/10/10 00:04:38;;;;;;;52.85;31.97;;;;;;;2.74;71.64;102470.41;1688207;81;25359;-81
2021/10/10 00:07:05;;;;;;;64.58;35.20;;;;;;;2.72;71.77;102462.58;1737874;81;26127;-81
2021/10/10 00:09:32;;;;;;;58.58;33.67;;;;;;;2.72;71.81;102458.61;1765376;81;26082;-81
2021/10/10 00:11:59;;;;;;;64.25;33.28;;;;;;;2.73;71.87;102463.43;1736605;81;27481;-81
2021/10/10 00:14:26;;;;;;;62.08;35.92;;;;;;;2.72;71.91;102463.89;1712025;81;25822;-81
2021/10/10 00:16:53;;;;;;;58.68;34.08;;;;;;;2.70;71.93;102456.98;1762620;80;25909;-82
2021/10/10 00:19:20;;;;;;;59.25;32.93;;;;;;;2.66;71.90;102460.77;1736514;78;25952;-82
2021/10/10 00:21:47;;;;;;;54.73;32.38;;;;;;;2.63;71.92;102463.61;1736026;81;25827;-81
2021/10/10 00:24:14;;;;;;;60.35;33.80;;;;;;;2.58;71.93;102459.05;1688685;81;27443;-81
2021/10/10 00:26:41;;;;;;;53.05;31.25;;;;;;;2.54;71.84;102457.53;1687060;81;26197;-81
2021/10/10 00:29:08;;;;;;;59.70;33.88;;;;;;;2.52;71.82;102462.91;1737306;82;25342;-82
2021/10/10 00:31:35;;;;;;;56.92;34.10;;;;;;;2.50;71.80;102454.22;1739564;82;26522;-82
2021/10/10 00:34:02;;;;;;;54.48;33.00;;;;;;;2.49;71.85;102453.83;1665848;82;25891;-82
2021/10/10 00:36:30;;;;;;;65.25;35.63;;;;;;;2.48;71.82;102461.86;1688349;82;27542;-82
2021/10/10 00:38:57;;;;;;;60.67;33.73;;;;;;;2.47;72.04;102453.06;1689513;82;26582;-82
2021/10/10 00:41:24;;;;;;;59.08;34.60;;;;;;;2.46;72.07;102456.63;1688678;82;25331;-82
2021/10/10 00:43:51;;;;;;;58.78;34.98;;;;;;;2.46;72.03;102459.28;1689414;82;26792;-82
2021/10/10 00:46:18;;;;;;;59.75;34.33;;;;;;;2.45;71.96;102458.06;1688867;82;25535;-82
2021/10/10 00:48:45;;;;;;;56.95;34.20;;;;;;;2.42;71.99;102452.97;1740094;82;27467;-82
2021/10/10 00:51:13;;;;;;;61.13;33.42;;;;;;;2.40;72.00;102453.49;1739410;81;25886;-82
2021/10/10 00:53:41;;;;;;;53.23;32.40;;;;;;;2.40;72.20;102454.81;1688833;82;25783;-82
2021/10/10 00:56:10;;;;;;;61.10;33.70;;;;;;;2.40;72.44;102449.06;1688401;82;25843;-81
2021/10/10 00:58:39;;;;;;;59.90;34.20;;;;;;;2.38;72.43;102446.98;1739887;82;25942;-82
2021/10/10 01:01:06;;;;;;;56.05;34.13;;;;;;;2.37;72.38;102449.27;1739586;81;28306;-81
2021/10/10 01:03:33;;;;;;;59.03;33.63;;;;;;;2.35;72.42;102445.36;1665807;82;25836;-82
2021/10/10 01:06:00;;;;;;;54.88;33.63;;;;;;;2.35;72.43;102440.57;1665356;82;25849;-82
2021/10/10 01:08:27;;;;;;;68.67;35.17;;;;;;;2.35;72.51;102443.22;1739610;81;25920;-81
2021/10/10 01:10:54;;;;;;;57.65;33.80;;;;;;;2.35;72.69;102448.50;1740015;81;26318;-82
2021/10/10 01:13:22;;;;;;;62.62;34.78;;;;;;;2.37;72.67;102441.80;1665995;82;28718;-82
2021/10/10 01:15:50;;;;;;;64.85;36.40;;;;;;;2.38;73.13;102445.66;1739672;81;25778;-81
2021/10/10 01:18:25;;;;;;;68.52;37.10;;;;;;;2.40;73.41;102436.30;1740271;82;25793;-82
2021/10/10 01:20:55;;;;;;;62.70;36.48;;;;;;;2.42;73.54;102434.45;1739405;82;25810;-81
2021/10/10 01:23:23;;;;;;;64.90;36.15;;;;;;;2.42;73.57;102435.28;1688713;82;25886;-81
2021/10/10 01:25:51;;;;;;;65.10;37.15;;;;;;;2.41;73.59;102435.38;1713616;82;27653;-81
2021/10/10 01:28:19;;;;;;;64.90;36.20;;;;;;;2.41;73.97;102430.95;1733862;81;25822;-82
2021/10/10 01:30:46;;;;;;;63.50;36.68;;;;;;;2.40;73.76;102433.20;1724293;81;25858;-81
2021/10/10 01:33:14;;;;;;;60.30;34.23;;;;;;;2.37;73.40;102432.54;1711713;81;26229;-81
2021/10/10 01:35:42;;;;;;;61.68;35.10;;;;;;;2.36;73.55;102438.29;1737291;81;25858;-81
2021/10/10 01:38:13;;;;;;;58.68;34.92;;;;;;;2.34;73.37;102427.81;1765403;81;27460;-81
2021/10/10 01:40:43;;;;;;;;;;;;;;;2.35;73.52;102428.67;1740072;80;25967;-81
2021/10/10 01:43:08;;;;;;;66.22;36.08;;;;;;;2.34;73.62;102427.81;1714167;81;25664;-82
2021/10/10 01:45:35;;;;;;;70.35;38.45;;;;;;;2.33;73.87;102428.73;1765696;81;25946;-81
2021/10/10 01:48:04;;;;;;;71.47;39.78;;;;;;;2.35;74.06;102423.38;1737671;81;25728;-81
2021/10/10 01:50:33;;;;;;;72.55;39.58;;;;;;;2.37;74.10;102427.25;1707612;81;28222;-82
2021/10/10 01:53:00;;;;;;;73.37;39.98;;;;;;;2.37;74.10;102425.47;1711547;80;26066;-82
2021/10/10 01:55:27;;;;;;;68.20;42.13;;;;;;;2.39;74.37;102422.72;1737372;81;25303;-82
2021/10/10 01:57:54;;;;;;;75.60;41.85;;;;;;;2.40;74.59;102418.66;1712720;81;26690;-82
2021/10/10 02:00:21;;;;;;;72.78;42.53;;;;;;;2.42;74.64;102421.23;1736350;81;25933;-82
2021/10/10 02:02:48;;;;;;;75.80;42.08;;;;;;;2.42;74.98;102420.73;1712023;80;27340;-81
2021/10/10 02:05:15;;;;;;;78.97;44.55;;;;;;;2.42;75.23;102415.45;1765437;78;25763;-82
2021/10/10 02:07:42;;;;;;;82.33;42.78;;;;;;;2.43;75.15;102417.63;1713244;81;25960;-81
2021/10/10 02:10:11;;;;;;;73.83;42.67;;;;;;;2.43;75.49;102411.02;1711936;81;25865;-81
2021/10/10 02:12:39;;;;;;;86.85;43.87;;;;;;;2.43;75.39;102413.66;1712044;81;25740;-82
2021/10/10 02:15:08;;;;;;;79.27;43.63;;;;;;;2.43;75.51;102410.55;1765473;80;27520;-82
2021/10/10 02:17:36;;;;;;;80.62;42.27;;;;;;;2.43;75.64;102405.73;1713234;78;25801;-81
2021/10/10 02:20:05;;;;;;;76.70;42.53;;;;;;;2.43;75.66;102404.41;1712291;81;26643;-82
2021/10/10 02:22:32;;;;;;;73.20;40.58;;;;;;;2.40;76.07;102404.57;1688626;81;25905;-82
2021/10/10 02:25:00;;;;;;;77.00;43.13;;;;;;;2.38;76.21;102407.31;1762714;80;25829;-82
2021/10/10 02:27:27;;;;;;;78.42;43.92;;;;;;;2.36;76.66;102407.88;1684017;82;27499;-82
2021/10/10 02:29:54;;;;;;;77.10;45.92;;;;;;;2.35;76.60;102403.05;1656393;83;26146;-82
2021/10/10 02:32:22;;;;;;;80.67;46.60;;;;;;;2.38;76.54;102406.45;1653521;84;25513;-81
2021/10/10 02:34:49;;;;;;;78.67;43.73;;;;;;;2.39;76.57;102402.89;1765955;80;25913;-81
2021/10/10 02:37:16;;;;;;;75.28;44.33;;;;;;;2.39;76.39;102402.89;1739754;81;25845;-82
2021/10/10 02:39:43;;;;;;;80.45;42.67;;;;;;;2.39;76.49;102403.75;1739989;81;27570;-82
2021/10/10 02:42:10;;;;;;;78.05;43.70;;;;;;;2.39;76.40;102397.13;1713599;81;25812;-82
2021/10/10 02:44:37;;;;;;;79.07;44.05;;;;;;;2.39;76.35;102398.92;1739891;81;25925;-82
2021/10/10 02:47:04;;;;;;;78.37;43.23;;;;;;;2.38;76.29;102395.87;1739874;81;26765;-81
2021/10/10 02:49:31;;;;;;;74.50;42.17;;;;;;;2.39;76.23;102397.13;1740360;81;25944;-82
2021/10/10 02:51:58;;;;;;;79.55;42.48;;;;;;;2.40;76.12;102390.89;1738617;81;27537;-81
2021/10/10 02:54:25;;;;;;;77.67;43.28;;;;;;;2.41;76.32;102394.39;1765866;81;25348;-82
2021/10/10 02:56:52;;;;;;;72.08;43.30;;;;;;;2.40;76.67;102388.24;1739401;81;25978;-84
2021/10/10 02:59:19;;;;;;;79.92;42.23;;;;;;;2.42;76.76;102390.81;1740108;81;26469;-82
2021/10/10 03:01:46;;;;;;;71.47;41.45;;;;;;;2.41;76.90;102389.09;1714142;81;25749;-82
2021/10/10 03:04:13;;;;;;;76.90;43.92;;;;;;;2.41;76.77;102386.45;1765955;80;27594;-82
2021/10/10 03:06:40;;;;;;;76.85;41.73;;;;;;;2.40;76.57;102388.70;1739724;81;25910;-81
2021/10/10 03:09:07;;;;;;;80.32;42.20;;;;;;;2.40;76.30;102383.41;1739665;81;25842;-81
2021/10/10 03:11:34;;;;;;;77.65;42.78;;;;;;;2.39;76.20;102387.88;1765885;81;25919;-82
2021/10/10 03:14:01;;;;;;;79.22;42.45;;;;;;;2.38;76.21;102383.52;1714378;81;25850;-82
2021/10/10 03:16:29;;;;;;;71.45;40.92;;;;;;;2.35;76.10;102383.22;1733983;81;27570;-81
2021/10/10 03:18:56;;;;;;;74.60;41.55;;;;;;;2.34;75.94;102377.57;1739991;81;25969;-81
2021/10/10 03:21:23;;;;;;;76.05;41.02;;;;;;;2.33;75.73;102381.64;1766140;80;25714;-81
2021/10/10 03:23:50;;;;;;;75.60;38.35;;;;;;;2.31;75.54;102383.02;1713872;81;26478;-82
2021/10/10 03:26:17;;;;;;;68.52;38.63;;;;;;;2.28;75.33;102379.26;1714402;81;25484;-82
2021/10/10 03:28:44;;;;;;;72.12;38.90;;;;;;;2.26;75.20;102386.44;1733611;81;28246;-82
2021/10/10 03:31:11;;;;;;;68.62;39.98;;;;;;;2.22;75.06;102380.91;1780833;80;25858;-82
2021/10/10 03:33:38;;;;;;;73.22;38.65;;;;;;;2.17;74.89;102377.71;1738649;80;25859;-82
2021/10/10 03:36:06;;;;;;;75.05;42.23;;;;;;;2.16;75.03;102378.64;1777918;80;25914;-81
2021/10/10 03:38:33;;;;;;;79.22;43.38;;;;;;;2.15;75.28;102377.41;1804604;79;25840;-82
2021/10/10 03:41:00;;;;;;;79.37;43.02;;;;;;;2.15;75.84;102387.98;1780787;80;27543;-81
2021/10/10 03:43:27;;;;;;;78.67;43.33;;;;;;;2.15;76.12;102374.77;1739087;80;26007;-81
2021/10/10 03:45:54;;;;;;;76.22;42.88;;;;;;;2.15;76.30;102365.52;1777721;80;25999;-83
2021/10/10 03:48:23;;;;;;;75.35;41.80;;;;;;;2.15;76.27;102366.38;1804965;79;26491;-82
2021/10/10 03:50:51;;;;;;;74.53;41.13;;;;;;;2.15;76.20;102362.41;1781029;80;25535;-82
2021/10/10 03:53:20;;;;;;;75.05;41.53;;;;;;;2.09;76.04;102366.74;1764178;80;27537;-81
2021/10/10 03:55:51;;;;;;;74.27;41.37;;;;;;;2.05;76.09;102366.52;1778047;80;26062;-81
2021/10/10 03:58:16;;;;;;;75.65;41.28;;;;;;;2.02;75.95;102365.84;1780817;79;25899;-81
2021/10/10 04:00:43;;;;;;;77.25;41.83;;;;;;;1.98;75.73;102365.65;1752480;79;25919;-81
2021/10/10 04:03:12;;;;;;;71.42;39.65;;;;;;;1.97;75.58;102363.93;1764190;80;25882;-82
2021/10/10 04:05:44;;;;;;;69.62;40.08;;;;;;;1.94;76.01;102364.98;1777706;80;27585;-81
2021/10/10 04:08:11;;;;;;;71.40;39.98;;;;;;;1.93;76.03;102357.12;1780091;80;25855;-82
2021/10/10 04:10:38;;;;;;;72.67;40.55;;;;;;;1.89;76.30;102355.14;1804705;79;25831;-82
2021/10/10 04:13:06;;;;;;;69.17;40.05;;;;;;;1.87;76.46;102358.80;1763923;80;25945;-81
2021/10/10 04:15:34;;;;;;;72.20;41.48;;;;;;;1.86;76.56;102356.63;1754783;80;26503;-81
2021/10/10 04:18:01;;;;;;;74.30;38.67;;;;;;;1.87;76.53;102362.77;1708331;81;28104;-82
2021/10/10 04:20:28;;;;;;;76.62;40.30;;;;;;;1.86;76.37;102352.66;1742662;81;26515;-81
2021/10/10 04:22:55;;;;;;;78.57;38.33;;;;;;;1.85;76.48;102348.33;1683863;82;26636;-81
2021/10/10 04:25:22;;;;;;;73.35;40.10;;;;;;;1.81;76.44;102350.78;1713229;81;26578;-81
2021/10/10 04:27:50;;;;;;;72.12;38.23;;;;;;;1.80;76.46;102352.16;1737686;81;25835;-81
2021/10/10 04:30:17;;;;;;;72.25;38.78;;;;;;;1.78;76.33;102353.58;1766097;80;27448;-81
2021/10/10 04:32:44;;;;;;;67.42;39.23;;;;;;;1.77;76.11;102360.28;1707058;82;26134;-81
2021/10/10 04:35:13;;;;;;;64.40;38.25;;;;;;;1.75;75.88;102351.59;1704538;82;25663;-81
2021/10/10 04:37:40;;;;;;;71.75;37.20;;;;;;;1.73;76.07;102346.88;1702765;83;25930;-81
2021/10/10 04:40:09;;;;;;;71.37;39.92;;;;;;;1.69;76.32;102352.78;1702059;82;25309;-81
2021/10/10 04:42:38;;;;;;;66.47;37.75;;;;;;;1.68;76.46;102352.41;1640116;84;27336;-81
2021/10/10 04:45:06;;;;;;;67.70;39.00;;;;;;;1.69;76.56;102348.81;1682507;83;25899;-81
2021/10/10 04:47:34;;;;;;;67.90;37.63;;;;;;;1.69;76.44;102348.81;1707823;81;25892;-81
2021/10/10 04:50:01;;;;;;;61.98;35.78;;;;;;;1.69;76.17;102354.59;1725920;81;25806;-81
2021/10/10 04:52:28;;;;;;;63.25;36.13;;;;;;;1.65;75.88;102351.74;1659842;82;25976;-81
2021/10/10 04:54:55;;;;;;;63.87;37.20;;;;;;;1.61;75.65;102344.91;1679576;82;27718;-81
2021/10/10 04:57:22;;;;;;;66.30;38.05;;;;;;;1.58;75.60;102344.64;1704571;81;25968;-81
2021/10/10 04:59:49;;;;;;;74.32;40.28;;;;;;;1.57;75.52;102348.20;1741505;81;25928;-82
2021/10/10 05:02:22;;;;;;;69.65;38.90;;;;;;;1.56;75.61;102350.48;1708961;82;25835;-81
2021/10/10 05:04:50;;;;;;;72.60;40.03;;;;;;;1.56;75.70;102343.88;1679550;80;25566;-80
2021/10/10 05:07:19;;;;;;;66.67;38.95;;;;;;;1.54;75.55;102343.94;1731769;80;27536;-81
2021/10/10 05:09:46;;;;;;;68.17;37.42;;;;;;;1.52;75.54;102348.92;1733440;82;25778;-81
2021/10/10 05:12:13;;;;;;;69.15;37.60;;;;;;;1.49;75.44;102344.69;1678516;83;25879;-81
2021/10/10 05:14:41;;;;;;;66.80;36.98;;;;;;;1.47;75.31;102348.34;1707452;82;26121;-81
2021/10/10 05:17:08;;;;;;;69.65;38.28;;;;;;;1.45;75.33;102343.62;1707345;82;26565;-81
2021/10/10 05:19:35;;;;;;;73.42;40.17;;;;;;;1.44;75.53;102342.77;1736946;81;27475;-81
2021/10/10 05:22:03;;;;;;;68.95;38.60;;;;;;;1.46;75.78;102346.62;1707455;82;25405;-81
2021/10/10 05:24:31;;;;;;;74.20;38.08;;;;;;;1.45;75.76;102343.13;1684014;82;25935;-82
2021/10/10 05:26:59;;;;;;;66.25;38.02;;;;;;;1.47;76.01;102341.74;1707281;82;25922;-80
2021/10/10 05:29:27;;;;;;;66.02;37.63;;;;;;;1.48;76.05;102339.47;1736827;82;25809;-81
2021/10/10 05:31:54;;;;;;;67.65;39.05;;;;;;;1.46;76.06;102341.34;1709354;81;27330;-81
2021/10/10 05:34:21;;;;;;;63.33;37.45;;;;;;;1.45;75.99;102339.16;1710734;81;26942;-81
2021/10/10 05:36:48;;;;;;;66.77;38.50;;;;;;;1.45;75.99;102340.98;1735052;81;25773;-81
2021/10/10 05:39:15;;;;;;;60.92;36.20;;;;;;;1.41;75.79;102333.68;1762711;81;26525;-81
2021/10/10 05:41:42;;;;;;;64.80;35.60;;;;;;;1.40;75.82;102333.77;1709470;81;25814;-81
2021/10/10 05:44:09;;;;;;;69.03;38.48;;;;;;;1.38;75.86;102329.91;1735251;81;27519;-81
2021/10/10 05:46:36;;;;;;;65.10;38.10;;;;;;;1.41;76.17;102331.04;1734922;81;25893;-81
2021/10/10 05:49:03;;;;;;;72.30;40.60;;;;;;;1.43;76.37;102330.48;1735249;80;25706;-81
2021/10/10 05:51:30;;;;;;;69.17;37.40;;;;;;;1.47;76.76;102332.50;1709582;81;25937;-81
2021/10/10 05:53:57;;;;;;;65.55;36.98;;;;;;;1.50;76.80;102333.17;1710986;81;25830;-81
2021/10/10 05:56:25;;;;;;;66.17;37.40;;;;;;;1.56;76.93;102341.23;1735222;81;28357;-81
2021/10/10 05:59:01;;;;;;;68.30;37.60;;;;;;;1.58;76.69;102335.39;1763000;81;25943;-81
2021/10/10 06:01:23;;;;;;;70.87;37.05;;;;;;;1.62;76.95;102337.38;1710335;81;25894;-81
2021/10/10 06:03:50;;;;;;;71.65;39.83;;;;;;;1.64;76.76;102339.00;1735151;81;25765;-82
2021/10/10 06:06:17;;;;;;;72.15;41.55;;;;;;;1.68;76.81;102340.98;1735167;81;25455;-82
2021/10/10 06:08:44;;;;;;;72.45;41.80;;;;;;;1.70;77.24;102337.33;1760531;80;27421;-81
2021/10/10 06:11:13;;;;;;;75.70;40.48;;;;;;;1.75;77.37;102337.92;1689451;82;43324;-81
2021/10/10 06:13:40;;;;;;;79.65;43.68;;;;;;;1.80;77.60;102332.34;1705829;82;25797;-81
2021/10/10 06:16:07;;;;;;;72.53;43.38;;;;;;;1.86;77.85;102337.30;1681780;84;25918;-81
2021/10/10 06:18:34;;;;;;;77.95;46.60;;;;;;;1.90;77.89;102341.00;1706012;81;25969;-81
2021/10/10 06:21:01;;;;;;;74.27;44.85;;;;;;;1.95;77.80;102339.39;1699945;82;27572;-82
2021/10/10 06:23:28;;;;;;;81.80;48.10;;;;;;;2.00;77.98;102336.88;1703040;82;25802;-82
2021/10/10 06:25:55;;;;;;;70.75;41.58;;;;;;;2.07;78.23;102339.55;1730347;81;25786;-83
2021/10/10 06:28:22;;;;;;;78.87;42.00;;;;;;;2.13;78.54;102339.65;1735819;80;26522;-83
2021/10/10 06:30:50;;;;;;;71.82;38.40;;;;;;;2.17;78.72;102342.48;1725333;81;25982;-83
2021/10/10 06:33:17;;;;;;;71.75;39.80;;;;;;;2.18;78.93;102338.42;1676388;83;27507;-83
2021/10/10 06:35:44;;;;;;;75.47;40.90;;;;;;;2.22;79.02;102342.58;1701343;83;25851;-83
2021/10/10 06:38:11;;;;;;;69.27;40.12;;;;;;;2.28;79.22;102343.56;1726247;83;25737;-83
2021/10/10 06:40:38;;;;;;;75.32;40.23;;;;;;;2.34;79.54;102341.87;1682328;82;26599;-82
2021/10/10 06:43:05;;;;;;;66.95;37.13;;;;;;;2.39;79.64;102329.70;1689847;82;25344;-83
2021/10/10 06:45:32;;;;;;;69.87;37.48;;;;;;;2.44;79.87;102330.25;1713721;82;27635;-83
2021/10/10 06:47:59;;;;;;;72.62;41.30;;;;;;;2.52;79.98;102332.45;1765630;81;26746;-83
2021/10/10 06:50:26;;;;;;;74.20;38.65;;;;;;;2.60;80.19;102331.05;1688501;81;25592;-83
2021/10/10 06:52:53;;;;;;;76.37;40.67;;;;;;;2.68;80.23;102337.17;1736291;81;25859;-83
2021/10/10 06:55:20;;;;;;;70.00;39.03;;;;;;;2.77;80.42;102342.77;1765702;81;25847;-82
2021/10/10 06:57:47;;;;;;;67.27;39.30;;;;;;;2.85;80.47;102340.48;1765807;78;27520;-81
2021/10/10 07:00:15;;;;;;;63.70;36.42;;;;;;;2.95;80.65;102337.64;1655520;82;26070;-82
2021/10/10 07:02:44;;;;;;;63.45;36.05;;;;;;;3.03;80.49;102341.15;1723691;82;25609;-82
2021/10/10 07:05:13;;;;;;;70.15;38.23;;;;;;;3.11;80.64;102337.08;1745751;80;25829;-83
2021/10/10 07:07:41;;;;;;;68.47;37.53;;;;;;;3.23;80.66;102342.55;1736001;82;25864;-84
2021/10/10 07:10:09;;;;;;;66.07;39.55;;;;;;;3.35;80.70;102341.75;1708371;80;27661;-84
2021/10/10 07:12:37;;;;;;;73.25;39.40;;;;;;;3.45;80.97;102343.71;1684281;82;26016;-84
2021/10/10 07:15:11;;;;;;;63.33;37.17;;;;;;;3.56;81.00;102338.58;1736102;80;25767;-84
2021/10/10 07:17:38;;;;;;;66.90;37.63;;;;;;;3.68;81.26;102344.86;1745750;80;25942;-84
2021/10/10 07:20:16;;;;;;;71.22;39.95;;;;;;;3.78;81.24;102338.89;1693579;82;25890;-85
2021/10/10 07:25:09;;;;;;;70.00;38.30;;;;;;;4.02;81.67;102328.93;1708090;82;25889;-84
2021/10/10 07:27:43;;;;;;;69.72;39.05;;;;;;;4.13;81.66;102333.05;1745759;81;26488;-84
2021/10/10 07:30:13;;;;;;;69.87;40.05;;;;;;;4.25;81.64;102334.85;1707015;82;25848;-84
2021/10/10 07:32:43;;;;;;;77.62;40.33;;;;;;;4.36;81.57;102329.17;1661352;84;25389;-84
2021/10/10 07:35:11;;;;;;;77.60;42.90;;;;;;;4.50;82.07;102331.75;1717365;80;27522;-84
2021/10/10 07:37:38;;;;;;;74.27;39.75;;;;;;;4.65;82.06;102336.47;1739321;80;26435;-84
2021/10/10 07:40:08;;;;;;;56.33;31.93;;;;;;;4.79;81.81;102335.02;1695588;80;25949;-84
2021/10/10 07:42:35;;;;;;;52.65;30.15;;;;;;;4.94;81.30;102329.13;1712859;80;25471;-84
2021/10/10 07:45:17;;;;;;;50.58;30.12;;;;;;;5.13;81.18;102332.17;1749191;80;25695;-84
2021/10/10 07:47:55;;;;;;;51.05;29.25;;;;;;;5.28;81.28;102333.23;1730866;80;28261;-84
2021/10/10 07:50:23;;;;;;;51.92;29.98;;;;;;;5.43;80.95;102330.80;1704113;80;26060;-84
2021/10/10 07:52:50;;;;;;;47.65;26.27;;;;;;;5.58;81.01;102331.48;1723004;80;25944;-84
2021/10/10 07:55:18;;;;;;;41.88;24.40;;;;;;;5.73;80.42;102328.20;1757088;80;25795;-83
2021/10/10 07:57:45;;;;;;;45.05;26.55;;;;;;;5.87;80.03;102333.36;1753346;79;25833;-84
2021/10/10 08:00:13;;;;;;;37.83;23.80;;;;;;;6.00;79.92;102331.00;1709404;80;27510;-84
2021/10/10 08:02:57;;;;;;;38.17;20.85;;;;;;;6.12;79.60;102333.20;1722600;80;25929;-84
2021/10/10 08:05:28;;;;;;;34.83;20.43;;;;;;;6.27;79.11;102327.20;1751119;80;25605;-83
2021/10/10 08:07:56;;;;;;;33.78;20.10;;;;;;;6.44;78.44;102317.44;1748057;80;25894;-84
2021/10/10 08:10:24;;;;;;;30.02;18.80;;;;;;;6.58;78.15;102324.75;1726674;80;26589;-84
2021/10/10 08:12:51;;;;;;;31.02;20.05;;;;;;;6.72;77.82;102323.65;1744254;81;27364;-84
2021/10/10 08:15:18;;;;;;;38.00;21.62;;;;;;;6.85;77.54;102321.25;1756268;80;25890;-81
2021/10/10 08:17:45;;;;;;;40.40;21.68;;;;;;;7.00;77.42;102321.84;1765529;80;25810;-82
2021/10/10 08:20:12;;;;;;;34.80;21.12;;;;;;;7.14;77.05;102316.76;1741054;80;25819;-82
2021/10/10 08:22:40;;;;;;;28.17;18.45;;;;;;;7.25;76.63;102316.75;1680338;80;25322;-82
2021/10/10 08:25:11;;;;;;;27.73;17.23;;;;;;;7.37;76.13;102312.61;1751024;80;27522;-82
2021/10/10 08:27:41;;;;;;;36.77;19.85;;;;;;;7.48;74.85;102313.92;1753502;80;25302;-82
2021/10/10 08:30:15;;;;;;;31.17;20.05;;;;;;;7.60;75.25;102318.72;1740780;80;25936;-82
2021/10/10 08:32:45;;;;;;;33.83;19.00;;;;;;;7.75;75.10;102312.12;1701185;80;25816;-82
2021/10/10 08:35:13;;;;;;;37.50;20.82;;;;;;;7.87;74.17;102307.09;1751705;80;25323;-83
2021/10/10 08:37:42;;;;;;;32.85;19.12;;;;;;;7.97;73.79;102305.84;1744998;81;27510;-83
2021/10/10 08:40:11;;;;;;;36.13;19.32;;;;;;;8.07;73.87;102305.42;1745692;80;25764;-83
2021/10/10 08:42:41;;;;;;;29.42;18.45;;;;;;;8.17;73.59;102302.36;1709431;80;25330;-83
2021/10/10 08:45:30;;;;;;;;;;;;;;;8.26;73.11;102296.25;1746863;80;26082;-83
2021/10/10 08:47:44;;;;;;;27.37;15.93;;;;;;;8.38;72.07;102301.90;1719443;81;25401;-83
2021/10/10 08:50:24;;;;;;;31.20;17.40;;;;;;;8.45;72.14;102296.37;1726812;81;27506;-84
2021/10/10 08:52:59;;;;;;;31.20;18.12;;;;;;;8.56;71.64;102297.63;1701071;82;25986;-82
2021/10/10 08:55:26;;;;;;;28.45;17.55;;;;;;;8.69;71.44;102298.75;1755293;80;25876;-84
2021/10/10 08:57:54;;;;;;;32.57;18.67;;;;;;;8.79;71.23;102292.98;1741458;80;26578;-85
2021/10/10 09:00:38;;;;;;;27.90;15.88;;;;;;;8.89;70.60;102291.19;1713528;82;25977;-84
2021/10/10 09:03:12;;;;;;;24.25;14.87;;;;;;;9.00;70.13;102285.23;1726534;80;27413;-83
2021/10/10 09:05:39;;;;;;;22.65;15.13;;;;;;;9.12;69.48;102292.67;1749677;81;26006;-83
2021/10/10 09:08:06;;;;;;;22.17;13.48;;;;;;;9.20;69.01;102286.14;1746648;81;25900;-83
2021/10/10 09:10:33;;;;;;;20.45;12.37;;;;;;;9.31;68.59;102286.03;1717084;82;26560;-83
2021/10/10 09:13:13;;;;;;;20.48;11.95;;;;;;;9.42;68.42;102286.41;1704955;82;25853;-83
2021/10/10 09:15:43;;;;;;;19.42;10.75;;;;;;;9.52;66.78;102276.07;1717946;82;27581;-83
2021/10/10 09:18:10;;;;;;;18.17;11.40;;;;;;;9.63;67.00;102281.30;1754396;80;26012;-84
2021/10/10 09:20:45;;;;;;;24.55;13.38;;;;;;;9.75;66.97;102276.66;1751235;80;25804;-83
2021/10/10 09:23:23;;;;;;;17.27;11.70;;;;;;;9.86;65.99;102272.48;1716537;81;26439;-83
2021/10/10 09:25:57;;;;;;;16.20;11.18;;;;;;;9.97;65.13;102275.02;1775034;80;25756;-83
2021/10/10 09:28:27;;;;;;;14.65;9.68;;;;;;;10.10;64.81;102270.22;1762110;80;27508;-83
2021/10/10 09:30:58;;;;;;;15.48;9.68;;;;;;;10.19;63.95;102273.41;1692115;82;26013;-84
2021/10/10 09:33:43;;;;;;;15.18;9.78;;;;;;;10.26;64.22;102270.52;1697282;81;26038;-83
2021/10/10 09:36:21;;;;;;;13.20;8.60;;;;;;;10.33;59.83;102268.11;1739209;81;25824;-83
2021/10/10 09:39:13;;;;;;;14.47;8.63;;;;;;;10.43;62.23;102275.13;1712250;80;25340;-84
2021/10/10 09:41:48;;;;;;;12.88;7.90;;;;;;;10.49;62.11;102273.70;1726641;81;27477;-84
2021/10/10 09:44:21;;;;;;;16.35;9.25;;;;;;;10.58;62.00;102268.32;1688767;81;26107;-83
2021/10/10 09:46:49;;;;;;;11.17;8.53;;;;;;;10.67;61.99;102270.62;1714596;81;25925;-83
2021/10/10 09:49:29;;;;;;;16.95;8.25;;;;;;;10.73;61.12;102264.66;1690373;81;26379;-83
2021/10/10 09:52:12;;;;;;;14.10;7.78;;;;;;;10.79;61.07;102260.05;1711938;82;25929;-84
2021/10/10 09:54:59;;;;;;;8.93;6.25;;;;;;;10.89;60.19;102259.50;1693198;82;27353;-84
2021/10/10 09:57:28;;;;;;;12.82;7.40;;;;;;;10.95;59.28;102252.20;1741546;82;26689;-84
2021/10/10 09:59:56;;;;;;;15.68;7.45;;;;;;;11.05;59.39;102252.16;1723603;80;26080;-84
2021/10/10 10:02:40;;;;;;;9.75;6.12;;;;;;;11.13;58.83;102252.25;1717402;81;26457;-84
2021/10/10 10:05:08;;;;;;;13.13;6.15;;;;;;;11.20;58.65;102254.20;1702407;81;26575;-83
2021/10/10 10:07:36;;;;;;;15.15;7.20;;;;;;;11.26;58.15;102249.56;1736396;81;27069;-84
2021/10/10 10:10:03;;;;;;;11.50;6.65;;;;;;;11.35;57.59;102250.49;1737181;81;25804;-84
2021/10/10 10:12:31;;;;;;;10.85;6.47;;;;;;;11.43;56.34;102244.71;1682311;81;25910;-84
2021/10/10 10:15:01;;;;;;;12.40;7.03;;;;;;;11.52;55.90;102242.95;1740013;81;25872;-84
2021/10/10 10:17:31;;;;;;;16.65;6.37;;;;;;;11.57;55.99;102240.14;1704823;82;25890;-84
2021/10/10 10:20:01;;;;;;;14.05;6.22;;;;;;;11.64;55.13;102239.03;1732799;81;27470;-84
2021/10/10 10:22:35;;;;;;;14.57;7.27;;;;;;;11.70;55.03;102239.78;1708231;81;26502;-84
2021/10/10 10:25:04;;;;;;;10.32;4.92;;;;;;;11.76;54.58;102236.48;1699383;81;26020;-84
2021/10/10 10:27:32;;;;;;;13.50;6.72;;;;;;;11.81;54.26;102232.84;1704361;82;25866;-84
2021/10/10 10:30:00;;;;;;;15.05;8.83;;;;;;;11.87;53.96;102222.00;1685080;82;26572;-85
2021/10/10 10:32:30;;;;;;;8.70;5.55;;;;;;;11.92;54.32;102227.23;1704954;82;28260;-84
2021/10/10 10:35:13;;;;;;;15.25;5.62;;;;;;;11.97;52.48;102219.56;1711305;81;25992;-84
2021/10/10 10:37:48;;;;;;;9.70;5.12;;;;;;;12.04;52.58;102225.97;1750799;81;25887;-84
2021/10/10 10:40:26;;;;;;;14.28;6.05;;;;;;;12.10;52.84;102228.02;1703175;82;25807;-84
2021/10/10 10:42:56;;;;;;;8.78;5.55;;;;;;;12.15;52.85;102228.41;1702803;81;25995;-85
2021/10/10 10:45:41;;;;;;;8.53;5.50;;;;;;;12.18;52.38;102224.08;1741139;81;27554;-84
2021/10/10 10:48:35;;;;;;;9.85;6.20;;;;;;;12.23;52.41;102222.27;1727813;81;25958;-84
2021/10/10 10:51:23;;;;;;;11.25;7.45;;;;;;;12.30;51.50;102219.27;1731285;81;25894;-85
2021/10/10 10:53:51;;;;;;;14.35;7.40;;;;;;;12.37;51.30;102220.32;1724716;82;25912;-86
2021/10/10 10:56:28;;;;;;;11.12;6.58;;;;;;;12.42;51.86;102215.32;1741413;80;25807;-85
2021/10/10 10:58:58;;;;;;;10.60;6.17;;;;;;;12.47;50.95;102214.84;1675467;81;28112;-85
2021/10/10 11:01:25;;;;;;;7.92;5.17;;;;;;;12.48;50.76;102209.80;1755679;79;26545;-85
2021/10/10 11:03:52;;;;;;;11.48;5.45;;;;;;;12.50;49.83;102214.02;1714749;82;25955;-85
2021/10/10 11:06:22;;;;;;;8.25;5.15;;;;;;;12.52;50.03;102216.04;1718442;81;25771;-84
2021/10/10 11:08:50;;;;;;;11.35;5.30;;;;;;;12.56;50.39;102213.37;1672486;81;25900;-85
2021/10/10 11:11:24;;;;;;;9.08;5.85;;;;;;;12.57;50.02;102210.19;1739553;81;28196;-84
2021/10/10 11:13:59;;;;;;;8.43;5.33;;;;;;;12.60;48.24;102203.13;1714617;82;25929;-85
2021/10/10 11:16:32;;;;;;;7.83;4.65;;;;;;;12.63;48.38;102199.64;1726789;82;25777;-84
2021/10/10 11:19:11;;;;;;;9.73;5.97;;;;;;;12.63;48.22;102196.95;1686595;82;26250;-84
2021/10/10 11:21:43;;;;;;;9.00;4.90;;;;;;;12.64;48.63;102201.83;1738178;82;25346;-84
2021/10/10 11:24:22;;;;;;;6.87;4.90;;;;;;;12.66;48.46;102189.06;1698664;79;28272;-85
2021/10/10 11:26:52;;;;;;;8.40;5.17;;;;;;;12.66;48.49;102190.41;1748082;80;25875;-85
2021/10/10 11:29:24;;;;;;;9.15;4.83;;;;;;;12.68;47.71;102188.40;1739760;80;25871;-85
2021/10/10 11:31:53;;;;;;;7.53;4.75;;;;;;;12.78;48.99;102182.38;1701367;83;25895;-85